sensor_id;sensor_type;location;lat;lon;timestamp;temperature;humidity
43338;DHT22;28933;52.492;13.434;2023-08-07T00:00:17;17.30;99.90
43338;DHT22;28933;52.492;13.434;2023-08-07T00:03:03;17.30;99.90
43338;DHT22;28933;52.492;13.434;2023-08-07T00:05:49;17.30;99.90
43338;DHT22;28933;52.492;13.434;2023-08-07T00:08:37;17.20;99.90
43338;DHT22;28933;52.492;13.434;2023-08-07T00:11:23;17.30;99.90
43338;DHT22;28933;52.492;13.434;2023-08-07T00:14:09;17.30;99.90
43338;DHT22;28933;52.492;13.434;2023-08-07T00:16:55;17.30;99.90
43338;DHT22;28933;52.492;13.434;2023-08-07T00:19:41;17.30;99.90
43338;DHT22;28933;52.492;13.434;2023-08-07T00:22:27;17.30;99.90
43338;DHT22;28933;52.492;13.434;2023-08-07T00:25:13;17.30;99.90
43338;DHT22;28933;52.492;13.434;2023-08-07T00:27:59;17.30;99.90
43338;DHT22;28933;52.492;13.434;2023-08-07T00:30:45;17.30;99.90
43338;DHT22;28933;52.492;13.434;2023-08-07T00:33:31;17.30;99.90
43338;DHT22;28933;52.492;13.434;2023-08-07T00:36:17;17.40;99.90
43338;DHT22;28933;52.492;13.434;2023-08-07T00:39:03;17.30;99.90
43338;DHT22;28933;52.492;13.434;2023-08-07T00:41:49;17.30;99.90
43338;DHT22;28933;52.492;13.434;2023-08-07T00:44:35;17.30;99.90
43338;DHT22;28933;52.492;13.434;2023-08-07T00:47:21;17.30;99.90
43338;DHT22;28933;52.492;13.434;2023-08-07T00:50:07;17.30;99.90
43338;DHT22;28933;52.492;13.434;2023-08-07T00:52:53;17.40;99.90
43338;DHT22;28933;52.492;13.434;2023-08-07T00:55:41;17.40;99.90
43338;DHT22;28933;52.492;13.434;2023-08-07T00:58:27;17.30;99.90
43338;DHT22;28933;52.492;13.434;2023-08-07T01:01:13;17.40;99.90
43338;DHT22;28933;52.492;13.434;2023-08-07T01:04:00;17.40;99.90
43338;DHT22;28933;52.492;13.434;2023-08-07T01:06:46;17.40;99.90
43338;DHT22;28933;52.492;13.434;2023-08-07T01:09:32;17.40;99.90
43338;DHT22;28933;52.492;13.434;2023-08-07T01:12:20;17.40;99.90
43338;DHT22;28933;52.492;13.434;2023-08-07T01:15:22;17.40;99.90
43338;DHT22;28933;52.492;13.434;2023-08-07T01:18:11;17.40;99.90
43338;DHT22;28933;52.492;13.434;2023-08-07T01:20:57;17.40;99.90
43338;DHT22;28933;52.492;13.434;2023-08-07T01:23:43;17.40;99.90
43338;DHT22;28933;52.492;13.434;2023-08-07T01:26:29;17.40;99.90
43338;DHT22;28933;52.492;13.434;2023-08-07T01:29:26;17.50;99.90
43338;DHT22;28933;52.492;13.434;2023-08-07T01:32:34;17.40;99.90
43338;DHT22;28933;52.492;13.434;2023-08-07T01:35:23;17.50;99.90
43338;DHT22;28933;52.492;13.434;2023-08-07T01:38:13;17.50;99.90
43338;DHT22;28933;52.492;13.434;2023-08-07T01:41:01;17.50;99.90
43338;DHT22;28933;52.492;13.434;2023-08-07T01:43:47;17.50;99.90
43338;DHT22;28933;52.492;13.434;2023-08-07T01:46:33;17.50;99.90
43338;DHT22;28933;52.492;13.434;2023-08-07T01:49:19;17.50;99.90
43338;DHT22;28933;52.492;13.434;2023-08-07T01:52:06;17.50;99.90
43338;DHT22;28933;52.492;13.434;2023-08-07T01:54:52;17.50;99.90
43338;DHT22;28933;52.492;13.434;2023-08-07T01:57:38;17.50;99.90
43338;DHT22;28933;52.492;13.434;2023-08-07T02:00:24;17.50;99.90
43338;DHT22;28933;52.492;13.434;2023-08-07T02:03:10;17.50;99.90
43338;DHT22;28933;52.492;13.434;2023-08-07T02:05:56;17.40;99.90
43338;DHT22;28933;52.492;13.434;2023-08-07T02:08:42;17.40;99.90
43338;DHT22;28933;52.492;13.434;2023-08-07T02:11:28;17.30;99.90
43338;DHT22;28933;52.492;13.434;2023-08-07T02:14:13;17.30;99.90
43338;DHT22;28933;52.492;13.434;2023-08-07T02:16:59;17.30;99.90
43338;DHT22;28933;52.492;13.434;2023-08-07T02:19:45;17.30;99.90
43338;DHT22;28933;52.492;13.434;2023-08-07T02:22:31;17.20;99.90
43338;DHT22;28933;52.492;13.434;2023-08-07T02:25:17;17.20;99.90
43338;DHT22;28933;52.492;13.434;2023-08-07T02:28:07;17.20;99.90
43338;DHT22;28933;52.492;13.434;2023-08-07T02:30:52;17.10;99.90
43338;DHT22;28933;52.492;13.434;2023-08-07T02:33:40;17.10;99.90
43338;DHT22;28933;52.492;13.434;2023-08-07T02:36:27;17.10;99.90
43338;DHT22;28933;52.492;13.434;2023-08-07T02:39:13;17.10;99.90
43338;DHT22;28933;52.492;13.434;2023-08-07T02:42:00;17.10;99.90
43338;DHT22;28933;52.492;13.434;2023-08-07T02:44:46;17.10;99.90
43338;DHT22;28933;52.492;13.434;2023-08-07T02:47:32;17.20;99.90
43338;DHT22;28933;52.492;13.434;2023-08-07T02:50:17;17.20;99.90
43338;DHT22;28933;52.492;13.434;2023-08-07T02:53:03;17.20;99.90
43338;DHT22;28933;52.492;13.434;2023-08-07T02:55:49;17.20;99.90
43338;DHT22;28933;52.492;13.434;2023-08-07T02:58:35;17.20;99.90
43338;DHT22;28933;52.492;13.434;2023-08-07T03:01:21;17.30;99.90
43338;DHT22;28933;52.492;13.434;2023-08-07T03:04:07;17.30;99.90
43338;DHT22;28933;52.492;13.434;2023-08-07T03:06:53;17.30;99.90
43338;DHT22;28933;52.492;13.434;2023-08-07T03:09:40;17.30;99.90
43338;DHT22;28933;52.492;13.434;2023-08-07T03:12:26;17.30;99.90
43338;DHT22;28933;52.492;13.434;2023-08-07T03:15:12;17.30;99.90
43338;DHT22;28933;52.492;13.434;2023-08-07T03:17:58;17.40;99.90
43338;DHT22;28933;52.492;13.434;2023-08-07T03:20:44;17.30;99.90
43338;DHT22;28933;52.492;13.434;2023-08-07T03:23:30;17.30;99.90
43338;DHT22;28933;52.492;13.434;2023-08-07T03:26:16;17.30;99.90
43338;DHT22;28933;52.492;13.434;2023-08-07T03:29:02;17.30;99.90
43338;DHT22;28933;52.492;13.434;2023-08-07T03:31:48;17.30;99.90
43338;DHT22;28933;52.492;13.434;2023-08-07T03:34:34;17.30;99.90
43338;DHT22;28933;52.492;13.434;2023-08-07T03:37:20;17.30;99.90
43338;DHT22;28933;52.492;13.434;2023-08-07T03:40:06;17.30;99.90
43338;DHT22;28933;52.492;13.434;2023-08-07T03:42:52;17.30;99.90
43338;DHT22;28933;52.492;13.434;2023-08-07T03:45:39;17.30;99.90
43338;DHT22;28933;52.492;13.434;2023-08-07T03:48:25;17.30;99.90
43338;DHT22;28933;52.492;13.434;2023-08-07T03:51:11;17.30;99.90
43338;DHT22;28933;52.492;13.434;2023-08-07T03:53:57;17.30;99.90
43338;DHT22;28933;52.492;13.434;2023-08-07T03:56:43;17.30;99.90
43338;DHT22;28933;52.492;13.434;2023-08-07T03:59:29;17.30;99.90
43338;DHT22;28933;52.492;13.434;2023-08-07T04:02:15;17.30;99.90
43338;DHT22;28933;52.492;13.434;2023-08-07T04:05:01;17.30;99.90
43338;DHT22;28933;52.492;13.434;2023-08-07T04:07:47;17.30;99.90
43338;DHT22;28933;52.492;13.434;2023-08-07T04:10:33;17.30;99.90
43338;DHT22;28933;52.492;13.434;2023-08-07T04:13:19;17.30;99.90
43338;DHT22;28933;52.492;13.434;2023-08-07T04:16:06;17.30;99.90
43338;DHT22;28933;52.492;13.434;2023-08-07T04:18:52;17.30;99.90
43338;DHT22;28933;52.492;13.434;2023-08-07T04:21:38;17.30;99.90
43338;DHT22;28933;52.492;13.434;2023-08-07T04:24:24;17.40;99.90
43338;DHT22;28933;52.492;13.434;2023-08-07T04:27:10;17.40;99.90
43338;DHT22;28933;52.492;13.434;2023-08-07T04:29:56;17.40;99.90
43338;DHT22;28933;52.492;13.434;2023-08-07T04:32:42;17.50;99.90
43338;DHT22;28933;52.492;13.434;2023-08-07T04:35:28;17.50;99.90
43338;DHT22;28933;52.492;13.434;2023-08-07T04:38:14;17.40;99.90
43338;DHT22;28933;52.492;13.434;2023-08-07T04:41:00;17.50;99.90
43338;DHT22;28933;52.492;13.434;2023-08-07T04:43:46;17.50;99.90
43338;DHT22;28933;52.492;13.434;2023-08-07T04:46:33;17.50;99.90
43338;DHT22;28933;52.492;13.434;2023-08-07T04:49:19;17.50;99.90
43338;DHT22;28933;52.492;13.434;2023-08-07T04:52:06;17.60;99.90
43338;DHT22;28933;52.492;13.434;2023-08-07T04:54:52;17.50;99.90
43338;DHT22;28933;52.492;13.434;2023-08-07T04:57:38;17.60;99.90
43338;DHT22;28933;52.492;13.434;2023-08-07T05:00:24;17.60;99.90
43338;DHT22;28933;52.492;13.434;2023-08-07T05:03:10;17.60;99.90
43338;DHT22;28933;52.492;13.434;2023-08-07T05:06:00;17.70;99.90
43338;DHT22;28933;52.492;13.434;2023-08-07T05:08:46;17.80;99.90
43338;DHT22;28933;52.492;13.434;2023-08-07T05:11:32;17.80;99.90
43338;DHT22;28933;52.492;13.434;2023-08-07T05:14:19;17.80;99.90
43338;DHT22;28933;52.492;13.434;2023-08-07T05:17:05;17.90;99.90
43338;DHT22;28933;52.492;13.434;2023-08-07T05:19:51;17.90;99.90
43338;DHT22;28933;52.492;13.434;2023-08-07T05:22:37;17.90;99.90
43338;DHT22;28933;52.492;13.434;2023-08-07T05:25:23;17.90;99.90
43338;DHT22;28933;52.492;13.434;2023-08-07T05:28:09;17.90;99.90
43338;DHT22;28933;52.492;13.434;2023-08-07T05:30:55;17.90;99.90
43338;DHT22;28933;52.492;13.434;2023-08-07T05:33:41;17.90;99.90
43338;DHT22;28933;52.492;13.434;2023-08-07T05:36:27;17.90;99.90
43338;DHT22;28933;52.492;13.434;2023-08-07T05:39:13;17.80;99.90
43338;DHT22;28933;52.492;13.434;2023-08-07T05:41:59;17.80;99.90
43338;DHT22;28933;52.492;13.434;2023-08-07T05:44:45;17.80;99.90
43338;DHT22;28933;52.492;13.434;2023-08-07T05:47:38;17.80;99.90
43338;DHT22;28933;52.492;13.434;2023-08-07T05:50:24;17.80;99.90
43338;DHT22;28933;52.492;13.434;2023-08-07T05:53:10;17.80;99.90
43338;DHT22;28933;52.492;13.434;2023-08-07T05:55:56;17.90;99.90
43338;DHT22;28933;52.492;13.434;2023-08-07T05:58:42;17.90;99.90
43338;DHT22;28933;52.492;13.434;2023-08-07T06:01:28;17.90;99.90
43338;DHT22;28933;52.492;13.434;2023-08-07T06:04:16;18.00;99.90
43338;DHT22;28933;52.492;13.434;2023-08-07T06:07:03;18.00;99.90
43338;DHT22;28933;52.492;13.434;2023-08-07T06:09:49;18.00;99.90
43338;DHT22;28933;52.492;13.434;2023-08-07T06:12:35;18.10;99.90
43338;DHT22;28933;52.492;13.434;2023-08-07T06:15:21;18.20;99.90
43338;DHT22;28933;52.492;13.434;2023-08-07T06:18:07;18.30;99.90
43338;DHT22;28933;52.492;13.434;2023-08-07T06:20:53;18.30;99.90
43338;DHT22;28933;52.492;13.434;2023-08-07T06:23:38;18.40;99.90
43338;DHT22;28933;52.492;13.434;2023-08-07T06:26:24;18.40;99.90
43338;DHT22;28933;52.492;13.434;2023-08-07T06:29:10;18.50;99.90
43338;DHT22;28933;52.492;13.434;2023-08-07T06:31:56;18.50;99.90
43338;DHT22;28933;52.492;13.434;2023-08-07T06:34:42;18.60;99.90
43338;DHT22;28933;52.492;13.434;2023-08-07T06:37:28;18.70;99.90
43338;DHT22;28933;52.492;13.434;2023-08-07T06:40:14;18.80;99.90
43338;DHT22;28933;52.492;13.434;2023-08-07T06:43:00;18.90;99.90
43338;DHT22;28933;52.492;13.434;2023-08-07T06:45:50;18.90;99.90
43338;DHT22;28933;52.492;13.434;2023-08-07T06:48:36;19.00;99.90
43338;DHT22;28933;52.492;13.434;2023-08-07T06:51:22;19.00;99.90
43338;DHT22;28933;52.492;13.434;2023-08-07T06:54:07;19.20;99.90
43338;DHT22;28933;52.492;13.434;2023-08-07T06:56:53;19.20;99.90
43338;DHT22;28933;52.492;13.434;2023-08-07T06:59:40;19.30;99.90
43338;DHT22;28933;52.492;13.434;2023-08-07T07:02:25;19.30;99.90
43338;DHT22;28933;52.492;13.434;2023-08-07T07:05:11;19.40;99.90
43338;DHT22;28933;52.492;13.434;2023-08-07T07:07:57;19.40;99.90
43338;DHT22;28933;52.492;13.434;2023-08-07T07:10:44;19.40;99.90
43338;DHT22;28933;52.492;13.434;2023-08-07T07:13:29;19.50;99.90
43338;DHT22;28933;52.492;13.434;2023-08-07T07:16:15;19.50;99.90
43338;DHT22;28933;52.492;13.434;2023-08-07T07:19:02;19.50;99.90
43338;DHT22;28933;52.492;13.434;2023-08-07T07:21:48;19.50;99.90
43338;DHT22;28933;52.492;13.434;2023-08-07T07:24:34;19.50;99.90
43338;DHT22;28933;52.492;13.434;2023-08-07T07:27:20;19.60;99.80
43338;DHT22;28933;52.492;13.434;2023-08-07T07:30:08;19.60;99.80
43338;DHT22;28933;52.492;13.434;2023-08-07T07:32:54;19.70;99.90
43338;DHT22;28933;52.492;13.434;2023-08-07T07:35:40;19.70;99.50
43338;DHT22;28933;52.492;13.434;2023-08-07T07:38:26;19.80;99.70
43338;DHT22;28933;52.492;13.434;2023-08-07T07:41:12;19.80;99.20
43338;DHT22;28933;52.492;13.434;2023-08-07T07:43:58;19.80;99.30
43338;DHT22;28933;52.492;13.434;2023-08-07T07:46:44;19.80;99.40
43338;DHT22;28933;52.492;13.434;2023-08-07T07:49:30;19.90;99.20
43338;DHT22;28933;52.492;13.434;2023-08-07T07:52:16;20.00;99.00
43338;DHT22;28933;52.492;13.434;2023-08-07T07:55:02;20.00;98.80
43338;DHT22;28933;52.492;13.434;2023-08-07T07:57:48;20.00;98.80
43338;DHT22;28933;52.492;13.434;2023-08-07T08:00:34;20.10;98.80
43338;DHT22;28933;52.492;13.434;2023-08-07T08:03:20;20.20;98.60
43338;DHT22;28933;52.492;13.434;2023-08-07T08:06:06;20.30;98.50
43338;DHT22;28933;52.492;13.434;2023-08-07T08:08:52;20.30;98.40
43338;DHT22;28933;52.492;13.434;2023-08-07T08:11:38;20.30;98.00
43338;DHT22;28933;52.492;13.434;2023-08-07T08:14:24;20.40;98.00
43338;DHT22;28933;52.492;13.434;2023-08-07T08:17:10;20.40;97.90
43338;DHT22;28933;52.492;13.434;2023-08-07T08:19:56;20.40;97.90
43338;DHT22;28933;52.492;13.434;2023-08-07T08:22:42;20.40;97.90
43338;DHT22;28933;52.492;13.434;2023-08-07T08:25:28;20.50;97.90
43338;DHT22;28933;52.492;13.434;2023-08-07T08:28:14;20.50;97.90
43338;DHT22;28933;52.492;13.434;2023-08-07T08:31:00;20.50;97.80
43338;DHT22;28933;52.492;13.434;2023-08-07T08:33:46;20.40;97.80
43338;DHT22;28933;52.492;13.434;2023-08-07T08:36:32;20.40;97.80
43338;DHT22;28933;52.492;13.434;2023-08-07T08:39:18;20.40;97.80
43338;DHT22;28933;52.492;13.434;2023-08-07T08:42:04;20.40;97.90
43338;DHT22;28933;52.492;13.434;2023-08-07T08:44:59;20.30;97.90
43338;DHT22;28933;52.492;13.434;2023-08-07T08:47:46;20.40;98.00
43338;DHT22;28933;52.492;13.434;2023-08-07T08:50:35;20.50;98.00
43338;DHT22;28933;52.492;13.434;2023-08-07T08:53:21;20.40;97.70
43338;DHT22;28933;52.492;13.434;2023-08-07T08:56:08;20.40;97.70
43338;DHT22;28933;52.492;13.434;2023-08-07T08:58:55;20.40;97.80
43338;DHT22;28933;52.492;13.434;2023-08-07T09:01:41;20.50;97.60
43338;DHT22;28933;52.492;13.434;2023-08-07T09:04:27;20.60;97.60
43338;DHT22;28933;52.492;13.434;2023-08-07T09:07:15;20.70;97.40
43338;DHT22;28933;52.492;13.434;2023-08-07T09:10:03;20.80;97.20
43338;DHT22;28933;52.492;13.434;2023-08-07T09:13:02;20.80;97.10
43338;DHT22;28933;52.492;13.434;2023-08-07T09:15:52;20.90;97.40
43338;DHT22;28933;52.492;13.434;2023-08-07T09:18:39;21.10;97.10
43338;DHT22;28933;52.492;13.434;2023-08-07T09:21:25;21.10;96.60
43338;DHT22;28933;52.492;13.434;2023-08-07T09:24:12;21.10;96.60
43338;DHT22;28933;52.492;13.434;2023-08-07T09:26:58;21.00;96.60
43338;DHT22;28933;52.492;13.434;2023-08-07T09:29:46;20.90;96.80
43338;DHT22;28933;52.492;13.434;2023-08-07T09:32:32;21.00;97.00
43338;DHT22;28933;52.492;13.434;2023-08-07T09:35:22;20.90;97.10
43338;DHT22;28933;52.492;13.434;2023-08-07T09:38:08;20.90;97.00
43338;DHT22;28933;52.492;13.434;2023-08-07T09:40:57;21.00;97.30
43338;DHT22;28933;52.492;13.434;2023-08-07T09:43:44;21.10;97.40
43338;DHT22;28933;52.492;13.434;2023-08-07T09:46:30;21.30;97.40
43338;DHT22;28933;52.492;13.434;2023-08-07T09:49:32;21.30;97.10
43338;DHT22;28933;52.492;13.434;2023-08-07T09:52:18;21.30;97.10
43338;DHT22;28933;52.492;13.434;2023-08-07T09:55:04;21.30;96.90
43338;DHT22;28933;52.492;13.434;2023-08-07T09:57:51;21.50;96.80
43338;DHT22;28933;52.492;13.434;2023-08-07T10:00:37;21.60;96.50
43338;DHT22;28933;52.492;13.434;2023-08-07T10:03:23;21.60;96.40
43338;DHT22;28933;52.492;13.434;2023-08-07T10:06:11;21.70;96.30
43338;DHT22;28933;52.492;13.434;2023-08-07T10:08:58;21.70;96.10
43338;DHT22;28933;52.492;13.434;2023-08-07T10:11:45;21.70;96.00
43338;DHT22;28933;52.492;13.434;2023-08-07T10:14:31;21.70;96.00
43338;DHT22;28933;52.492;13.434;2023-08-07T10:17:18;21.70;95.80
43338;DHT22;28933;52.492;13.434;2023-08-07T10:20:06;21.80;95.60
43338;DHT22;28933;52.492;13.434;2023-08-07T10:22:57;21.80;95.40
43338;DHT22;28933;52.492;13.434;2023-08-07T10:25:46;21.90;95.10
43338;DHT22;28933;52.492;13.434;2023-08-07T10:28:37;21.90;94.70
43338;DHT22;28933;52.492;13.434;2023-08-07T10:31:25;21.80;94.70
43338;DHT22;28933;52.492;13.434;2023-08-07T10:34:11;21.80;94.80
43338;DHT22;28933;52.492;13.434;2023-08-07T10:36:57;21.80;94.70
43338;DHT22;28933;52.492;13.434;2023-08-07T10:40:15;21.90;94.60
43338;DHT22;28933;52.492;13.434;2023-08-07T10:43:13;21.90;94.50
43338;DHT22;28933;52.492;13.434;2023-08-07T10:46:03;22.00;94.40
43338;DHT22;28933;52.492;13.434;2023-08-07T10:48:56;22.00;94.20
43338;DHT22;28933;52.492;13.434;2023-08-07T10:51:45;22.10;93.90
43338;DHT22;28933;52.492;13.434;2023-08-07T10:54:37;22.00;93.80
43338;DHT22;28933;52.492;13.434;2023-08-07T10:57:31;22.10;93.80
43338;DHT22;28933;52.492;13.434;2023-08-07T11:00:18;22.10;93.50
43338;DHT22;28933;52.492;13.434;2023-08-07T11:03:08;22.10;93.50
43338;DHT22;28933;52.492;13.434;2023-08-07T11:05:57;22.10;93.80
43338;DHT22;28933;52.492;13.434;2023-08-07T11:08:44;22.20;93.50
43338;DHT22;28933;52.492;13.434;2023-08-07T11:11:40;22.30;93.60
43338;DHT22;28933;52.492;13.434;2023-08-07T11:14:26;22.20;93.30
43338;DHT22;28933;52.492;13.434;2023-08-07T11:17:12;22.10;93.80
43338;DHT22;28933;52.492;13.434;2023-08-07T11:19:58;21.90;94.30
43338;DHT22;28933;52.492;13.434;2023-08-07T11:22:45;21.70;94.70
43338;DHT22;28933;52.492;13.434;2023-08-07T11:25:31;21.50;95.00
43338;DHT22;28933;52.492;13.434;2023-08-07T11:28:21;21.40;95.10
43338;DHT22;28933;52.492;13.434;2023-08-07T11:31:07;21.40;95.50
43338;DHT22;28933;52.492;13.434;2023-08-07T11:33:56;21.30;95.50
43338;DHT22;28933;52.492;13.434;2023-08-07T11:36:48;21.10;95.70
43338;DHT22;28933;52.492;13.434;2023-08-07T11:39:42;21.10;95.90
43338;DHT22;28933;52.492;13.434;2023-08-07T11:42:28;21.00;96.20
43338;DHT22;28933;52.492;13.434;2023-08-07T11:45:14;21.00;96.30
43338;DHT22;28933;52.492;13.434;2023-08-07T11:48:02;20.90;96.40
43338;DHT22;28933;52.492;13.434;2023-08-07T11:50:48;20.90;96.50
43338;DHT22;28933;52.492;13.434;2023-08-07T11:53:39;20.80;96.70
43338;DHT22;28933;52.492;13.434;2023-08-07T11:56:25;20.90;97.00
43338;DHT22;28933;52.492;13.434;2023-08-07T11:59:11;21.00;97.20
43338;DHT22;28933;52.492;13.434;2023-08-07T12:01:57;21.10;97.00
43338;DHT22;28933;52.492;13.434;2023-08-07T12:04:43;21.20;97.00
43338;DHT22;28933;52.492;13.434;2023-08-07T12:07:29;21.30;96.80
43338;DHT22;28933;52.492;13.434;2023-08-07T12:10:15;21.40;96.50
43338;DHT22;28933;52.492;13.434;2023-08-07T12:13:01;21.50;96.70
43338;DHT22;28933;52.492;13.434;2023-08-07T12:15:53;21.50;96.40
43338;DHT22;28933;52.492;13.434;2023-08-07T12:18:39;21.60;96.20
43338;DHT22;28933;52.492;13.434;2023-08-07T12:21:26;21.60;96.30
43338;DHT22;28933;52.492;13.434;2023-08-07T12:24:13;21.60;96.10
43338;DHT22;28933;52.492;13.434;2023-08-07T12:26:59;21.50;96.30
43338;DHT22;28933;52.492;13.434;2023-08-07T12:29:45;21.50;96.00
43338;DHT22;28933;52.492;13.434;2023-08-07T12:32:31;21.40;96.00
43338;DHT22;28933;52.492;13.434;2023-08-07T12:35:17;21.50;95.80
43338;DHT22;28933;52.492;13.434;2023-08-07T12:38:03;21.50;95.90
43338;DHT22;28933;52.492;13.434;2023-08-07T12:40:49;21.40;96.10
43338;DHT22;28933;52.492;13.434;2023-08-07T12:43:35;21.40;96.20
43338;DHT22;28933;52.492;13.434;2023-08-07T12:46:21;21.40;95.70
43338;DHT22;28933;52.492;13.434;2023-08-07T12:49:09;21.30;95.80
43338;DHT22;28933;52.492;13.434;2023-08-07T12:51:55;21.20;95.80
43338;DHT22;28933;52.492;13.434;2023-08-07T12:54:43;21.10;95.80
43338;DHT22;28933;52.492;13.434;2023-08-07T12:57:29;21.10;95.90
43338;DHT22;28933;52.492;13.434;2023-08-07T13:00:16;21.00;96.00
43338;DHT22;28933;52.492;13.434;2023-08-07T13:03:02;21.00;96.10
43338;DHT22;28933;52.492;13.434;2023-08-07T13:05:48;20.90;95.80
43338;DHT22;28933;52.492;13.434;2023-08-07T13:08:34;20.80;95.80
43338;DHT22;28933;52.492;13.434;2023-08-07T13:11:20;20.90;96.20
43338;DHT22;28933;52.492;13.434;2023-08-07T13:14:06;21.00;95.90
43338;DHT22;28933;52.492;13.434;2023-08-07T13:16:52;21.10;95.50
43338;DHT22;28933;52.492;13.434;2023-08-07T13:19:38;21.30;95.10
43338;DHT22;28933;52.492;13.434;2023-08-07T13:22:24;21.50;95.20
43338;DHT22;28933;52.492;13.434;2023-08-07T13:25:11;21.70;95.10
43338;DHT22;28933;52.492;13.434;2023-08-07T13:27:57;21.80;95.20
43338;DHT22;28933;52.492;13.434;2023-08-07T13:30:43;21.90;95.10
43338;DHT22;28933;52.492;13.434;2023-08-07T13:33:29;21.90;94.20
43338;DHT22;28933;52.492;13.434;2023-08-07T13:36:15;21.80;93.40
43338;DHT22;28933;52.492;13.434;2023-08-07T13:39:01;21.80;93.10
43338;DHT22;28933;52.492;13.434;2023-08-07T13:41:47;21.80;92.00
43338;DHT22;28933;52.492;13.434;2023-08-07T13:44:33;21.70;91.80
43338;DHT22;28933;52.492;13.434;2023-08-07T13:47:19;21.70;91.00
43338;DHT22;28933;52.492;13.434;2023-08-07T13:50:06;21.80;90.80
43338;DHT22;28933;52.492;13.434;2023-08-07T13:52:52;21.70;90.70
43338;DHT22;28933;52.492;13.434;2023-08-07T13:55:38;21.70;89.90
43338;DHT22;28933;52.492;13.434;2023-08-07T13:58:25;21.60;90.10
43338;DHT22;28933;52.492;13.434;2023-08-07T14:01:11;21.60;90.00
43338;DHT22;28933;52.492;13.434;2023-08-07T14:03:56;21.60;89.40
43338;DHT22;28933;52.492;13.434;2023-08-07T14:06:42;21.60;88.30
43338;DHT22;28933;52.492;13.434;2023-08-07T14:09:30;21.60;87.60
43338;DHT22;28933;52.492;13.434;2023-08-07T14:12:16;21.50;87.40
43338;DHT22;28933;52.492;13.434;2023-08-07T14:15:01;21.50;87.10
43338;DHT22;28933;52.492;13.434;2023-08-07T14:17:48;21.50;87.90
43338;DHT22;28933;52.492;13.434;2023-08-07T14:20:35;21.60;88.20
43338;DHT22;28933;52.492;13.434;2023-08-07T14:23:21;21.60;86.60
43338;DHT22;28933;52.492;13.434;2023-08-07T14:26:07;21.60;87.20
43338;DHT22;28933;52.492;13.434;2023-08-07T14:28:53;21.60;87.10
43338;DHT22;28933;52.492;13.434;2023-08-07T14:31:39;21.60;87.10
43338;DHT22;28933;52.492;13.434;2023-08-07T14:34:25;21.60;87.40
43338;DHT22;28933;52.492;13.434;2023-08-07T14:37:11;21.60;86.60
43338;DHT22;28933;52.492;13.434;2023-08-07T14:39:57;21.50;86.50
43338;DHT22;28933;52.492;13.434;2023-08-07T14:42:43;21.50;85.90
43338;DHT22;28933;52.492;13.434;2023-08-07T14:45:32;21.50;85.70
43338;DHT22;28933;52.492;13.434;2023-08-07T14:48:18;21.50;85.50
43338;DHT22;28933;52.492;13.434;2023-08-07T14:51:05;21.50;85.00
43338;DHT22;28933;52.492;13.434;2023-08-07T14:53:51;21.50;85.00
43338;DHT22;28933;52.492;13.434;2023-08-07T14:56:37;21.50;85.30
43338;DHT22;28933;52.492;13.434;2023-08-07T14:59:23;21.50;84.60
43338;DHT22;28933;52.492;13.434;2023-08-07T15:02:09;21.50;85.30
43338;DHT22;28933;52.492;13.434;2023-08-07T15:04:55;21.50;85.80
43338;DHT22;28933;52.492;13.434;2023-08-07T15:07:42;21.40;85.30
43338;DHT22;28933;52.492;13.434;2023-08-07T15:10:28;21.30;84.70
43338;DHT22;28933;52.492;13.434;2023-08-07T15:13:14;21.20;84.40
43338;DHT22;28933;52.492;13.434;2023-08-07T15:16:00;21.20;84.10
43338;DHT22;28933;52.492;13.434;2023-08-07T15:18:46;21.10;83.50
43338;DHT22;28933;52.492;13.434;2023-08-07T15:21:32;21.10;83.80
43338;DHT22;28933;52.492;13.434;2023-08-07T15:24:18;21.10;84.10
43338;DHT22;28933;52.492;13.434;2023-08-07T15:27:04;21.10;84.00
43338;DHT22;28933;52.492;13.434;2023-08-07T15:29:50;21.10;84.20
43338;DHT22;28933;52.492;13.434;2023-08-07T15:32:36;21.10;84.30
43338;DHT22;28933;52.492;13.434;2023-08-07T15:35:23;21.10;84.40
43338;DHT22;28933;52.492;13.434;2023-08-07T15:38:09;21.10;84.30
43338;DHT22;28933;52.492;13.434;2023-08-07T15:40:58;21.10;84.50
43338;DHT22;28933;52.492;13.434;2023-08-07T15:43:44;21.30;84.80
43338;DHT22;28933;52.492;13.434;2023-08-07T15:46:30;21.50;84.90
43338;DHT22;28933;52.492;13.434;2023-08-07T15:49:16;21.70;84.40
43338;DHT22;28933;52.492;13.434;2023-08-07T15:52:02;21.80;84.30
43338;DHT22;28933;52.492;13.434;2023-08-07T15:54:48;21.80;83.90
43338;DHT22;28933;52.492;13.434;2023-08-07T15:57:34;21.80;83.70
43338;DHT22;28933;52.492;13.434;2023-08-07T16:00:20;21.70;82.90
43338;DHT22;28933;52.492;13.434;2023-08-07T16:03:07;21.60;82.70
43338;DHT22;28933;52.492;13.434;2023-08-07T16:05:53;21.50;82.60
43338;DHT22;28933;52.492;13.434;2023-08-07T16:08:39;21.40;83.00
43338;DHT22;28933;52.492;13.434;2023-08-07T16:11:25;21.30;83.20
43338;DHT22;28933;52.492;13.434;2023-08-07T16:14:11;21.30;83.60
43338;DHT22;28933;52.492;13.434;2023-08-07T16:16:57;21.30;83.90
43338;DHT22;28933;52.492;13.434;2023-08-07T16:19:43;21.40;84.30
43338;DHT22;28933;52.492;13.434;2023-08-07T16:22:29;21.50;84.20
43338;DHT22;28933;52.492;13.434;2023-08-07T16:25:15;21.50;83.90
43338;DHT22;28933;52.492;13.434;2023-08-07T16:28:01;21.50;83.50
43338;DHT22;28933;52.492;13.434;2023-08-07T16:30:49;21.60;83.50
43338;DHT22;28933;52.492;13.434;2023-08-07T16:33:35;21.70;83.50
43338;DHT22;28933;52.492;13.434;2023-08-07T16:36:21;21.70;83.50
43338;DHT22;28933;52.492;13.434;2023-08-07T16:39:07;21.60;83.40
43338;DHT22;28933;52.492;13.434;2023-08-07T16:41:53;21.50;82.60
43338;DHT22;28933;52.492;13.434;2023-08-07T16:44:38;21.40;82.20
43338;DHT22;28933;52.492;13.434;2023-08-07T16:47:24;21.20;81.30
43338;DHT22;28933;52.492;13.434;2023-08-07T16:50:10;21.10;81.10
43338;DHT22;28933;52.492;13.434;2023-08-07T16:52:57;21.00;81.70
43338;DHT22;28933;52.492;13.434;2023-08-07T16:55:43;20.90;81.20
43338;DHT22;28933;52.492;13.434;2023-08-07T16:58:28;20.80;81.60
43338;DHT22;28933;52.492;13.434;2023-08-07T17:01:14;20.70;81.70
43338;DHT22;28933;52.492;13.434;2023-08-07T17:04:00;20.60;81.50
43338;DHT22;28933;52.492;13.434;2023-08-07T17:06:46;20.60;82.10
43338;DHT22;28933;52.492;13.434;2023-08-07T17:09:33;20.60;82.20
43338;DHT22;28933;52.492;13.434;2023-08-07T17:12:19;20.60;82.20
43338;DHT22;28933;52.492;13.434;2023-08-07T17:15:05;20.60;82.60